createdAt,value
2019-06-27T00:01:42.035Z,73.30
2019-06-27T00:04:15.270Z,73.40
2019-06-27T00:06:48.014Z,73.40
2019-06-27T00:09:21.504Z,73.70
2019-06-27T00:11:54.687Z,73.70
2019-06-27T00:14:27.755Z,73.80
2019-06-27T00:17:00.279Z,73.80
2019-06-27T00:19:32.669Z,73.50
2019-06-27T00:22:05.505Z,73.80
2019-06-27T00:24:39.083Z,74.20
2019-06-27T00:27:11.464Z,74.60
2019-06-27T00:29:43.988Z,74.60
2019-06-27T00:32:15.894Z,74.40
2019-06-27T00:34:48.409Z,74.90
2019-06-27T00:37:20.184Z,75.20
2019-06-27T00:39:52.778Z,75.00
2019-06-27T00:42:25.214Z,74.90
2019-06-27T00:44:59.809Z,74.80
2019-06-27T00:47:32.244Z,75.00
2019-06-27T00:50:05.867Z,75.30
2019-06-27T00:52:38.014Z,74.90
2019-06-27T00:55:11.034Z,74.60
2019-06-27T00:57:43.086Z,74.30
2019-06-27T01:00:15.097Z,74.20
2019-06-27T01:02:47.326Z,73.90
2019-06-27T01:05:19.563Z,73.30
2019-06-27T01:07:51.979Z,72.10
2019-06-27T01:10:25.669Z,72.60
2019-06-27T01:12:58.699Z,73.00
2019-06-27T01:15:31.031Z,73.00
2019-06-27T01:18:03.189Z,73.60
2019-06-27T01:20:35.796Z,74.50
2019-06-27T01:23:08.655Z,74.10
2019-06-27T01:25:40.924Z,74.30
2019-06-27T01:28:13.164Z,74.30
2019-06-27T01:30:45.775Z,74.50
2019-06-27T01:33:19.139Z,74.60
2019-06-27T01:35:51.754Z,74.50
2019-06-27T01:38:24.434Z,74.60
2019-06-27T01:40:57.062Z,75.20
2019-06-27T01:43:29.454Z,76.20
2019-06-27T01:46:02.855Z,76.70
2019-06-27T01:48:35.759Z,77.00
2019-06-27T01:51:08.524Z,76.50
2019-06-27T01:53:41.343Z,76.00
2019-06-27T01:56:14.524Z,76.00
2019-06-27T01:58:46.958Z,75.70
2019-06-27T02:01:19.884Z,74.40
2019-06-27T02:03:53.450Z,74.80
2019-06-27T02:06:27.258Z,74.10
2019-06-27T02:09:00.350Z,74.50
2019-06-27T02:11:32.361Z,74.40
2019-06-27T02:14:04.535Z,74.30
2019-06-27T02:16:37.604Z,74.10
2019-06-27T02:19:09.455Z,73.70
2019-06-27T02:21:42.029Z,73.70
2019-06-27T02:24:14.541Z,73.50
2019-06-27T02:26:46.664Z,72.90
2019-06-27T02:29:19.484Z,73.00
2019-06-27T02:31:51.325Z,72.80
2019-06-27T02:34:24.154Z,71.60
2019-06-27T02:36:57.828Z,71.50
2019-06-27T02:39:31.066Z,71.00
2019-06-27T02:42:03.336Z,71.00
2019-06-27T02:44:35.530Z,70.00
2019-06-27T02:47:08.380Z,69.50
2019-06-27T02:49:41.121Z,69.10
2019-06-27T02:52:13.050Z,69.10
2019-06-27T02:54:45.666Z,68.40
2019-06-27T02:57:19.263Z,68.50
2019-06-27T02:59:52.741Z,68.00
2019-06-27T03:02:25.319Z,68.80
2019-06-27T03:04:57.715Z,67.90
2019-06-27T03:07:30.785Z,67.40
2019-06-27T03:10:03.040Z,67.80
2019-06-27T03:12:36.560Z,67.20
2019-06-27T03:15:10.314Z,66.70
2019-06-27T03:17:43.046Z,66.50
2019-06-27T03:20:15.507Z,66.60
2019-06-27T03:22:47.668Z,67.00
2019-06-27T03:25:21.314Z,68.30
2019-06-27T03:27:54.581Z,67.50
2019-06-27T03:30:27.705Z,67.10
2019-06-27T03:32:59.772Z,66.90
2019-06-27T03:35:32.379Z,65.70
2019-06-27T03:38:06.110Z,65.60
2019-06-27T03:40:39.029Z,65.30
2019-06-27T03:43:11.359Z,65.10
2019-06-27T03:45:44.078Z,64.10
2019-06-27T03:48:17.824Z,63.60
2019-06-27T03:50:50.669Z,64.10
2019-06-27T03:53:22.438Z,64.00
2019-06-27T03:55:54.579Z,63.60
2019-06-27T03:58:27.356Z,62.90
2019-06-27T04:00:59.500Z,63.30
2019-06-27T04:03:32.550Z,63.30
2019-06-27T04:06:04.858Z,63.80
2019-06-27T04:08:36.964Z,64.00
2019-06-27T04:11:09.774Z,64.10
2019-06-27T04:13:41.982Z,59.60
2019-06-27T04:16:14.470Z,61.00
2019-06-27T04:18:47.207Z,60.50
2019-06-27T04:21:20.040Z,59.00
2019-06-27T04:23:52.153Z,60.50
2019-06-27T04:26:24.919Z,61.00
2019-06-27T04:28:57.015Z,60.30
2019-06-27T04:31:29.549Z,61.30
2019-06-27T04:34:02.429Z,61.90
2019-06-27T04:36:35.238Z,63.10
2019-06-27T04:39:07.748Z,62.90
2019-06-27T04:41:40.915Z,62.60
2019-06-27T04:44:12.755Z,63.00
2019-06-27T04:46:45.810Z,64.50
2019-06-27T04:49:18.628Z,64.90
2019-06-27T04:51:50.815Z,65.70
2019-06-27T04:54:22.949Z,66.60
2019-06-27T04:56:56.399Z,66.90
2019-06-27T04:59:28.969Z,66.70
2019-06-27T05:02:01.466Z,66.50
2019-06-27T05:04:33.503Z,66.40
2019-06-27T05:07:06.688Z,65.90
2019-06-27T05:09:39.130Z,66.30
2019-06-27T05:12:11.746Z,66.60
2019-06-27T05:14:44.437Z,66.20
2019-06-27T05:17:17.000Z,66.10
2019-06-27T05:19:49.455Z,65.20
2019-06-27T05:22:21.933Z,65.70
2019-06-27T05:24:54.482Z,65.80
2019-06-27T05:27:25.349Z,65.60
2019-06-27T05:30:08.697Z,65.90
2019-06-27T05:32:31.159Z,67.20
2019-06-27T05:35:03.170Z,68.00
2019-06-27T05:37:35.568Z,67.60
2019-06-27T05:40:08.755Z,67.10
2019-06-27T05:42:41.473Z,67.10
2019-06-27T05:45:13.825Z,66.70
2019-06-27T05:47:46.137Z,68.40
2019-06-27T05:50:19.264Z,67.50
2019-06-27T05:52:51.313Z,66.90
2019-06-27T05:55:23.173Z,67.30
2019-06-27T05:57:55.651Z,68.20
2019-06-27T06:00:29.476Z,68.30
2019-06-27T06:03:01.338Z,68.30
2019-06-27T06:05:33.225Z,66.70
2019-06-27T06:08:06.033Z,66.70
2019-06-27T06:10:38.560Z,65.70
2019-06-27T06:13:11.385Z,64.80
2019-06-27T06:15:43.816Z,67.40
2019-06-27T06:18:16.584Z,68.20
2019-06-27T06:20:49.898Z,67.80
2019-06-27T06:23:22.458Z,67.00
2019-06-27T06:25:54.878Z,64.20
2019-06-27T06:28:28.139Z,59.10
2019-06-27T06:31:00.710Z,58.80
2019-06-27T06:33:32.739Z,56.50
2019-06-27T06:36:05.998Z,55.80
2019-06-27T06:38:38.215Z,58.20
2019-06-27T06:41:10.939Z,54.80
2019-06-27T06:43:43.113Z,54.10
2019-06-27T06:46:16.161Z,53.70
2019-06-27T06:48:48.898Z,53.50
2019-06-27T06:51:21.178Z,52.60
2019-06-27T06:53:53.139Z,53.10
2019-06-27T06:56:25.978Z,63.40
2019-06-27T06:58:58.914Z,65.00
2019-06-27T07:01:31.903Z,61.30
2019-06-27T07:04:04.073Z,54.60
2019-06-27T07:06:36.546Z,54.20
2019-06-27T07:09:08.923Z,53.30
2019-06-27T07:11:41.337Z,53.00
2019-06-27T07:14:14.031Z,53.00
2019-06-27T07:16:47.164Z,52.90
2019-06-27T07:19:19.145Z,52.80
2019-06-27T07:21:50.738Z,52.40
2019-06-27T07:24:23.009Z,52.90
2019-06-27T07:26:54.575Z,52.10
2019-06-27T07:29:26.826Z,52.10
2019-06-27T07:31:59.825Z,52.70
2019-06-27T07:34:32.048Z,52.00
2019-06-27T07:37:04.228Z,52.20
2019-06-27T07:39:37.068Z,51.60
2019-06-27T07:42:09.526Z,51.60
2019-06-27T07:44:41.588Z,52.10
2019-06-27T07:47:13.664Z,51.70
2019-06-27T07:49:45.557Z,51.40
2019-06-27T07:52:18.903Z,50.70
2019-06-27T07:54:50.919Z,50.20
2019-06-27T07:57:23.277Z,50.40
2019-06-27T07:59:56.574Z,59.50
2019-06-27T08:02:29.653Z,62.00
2019-06-27T08:05:01.983Z,63.20
2019-06-27T08:07:34.058Z,63.80
2019-06-27T08:10:06.566Z,62.50
2019-06-27T08:12:42.070Z,62.70
2019-06-27T08:15:12.282Z,62.10
2019-06-27T08:17:44.861Z,63.10
2019-06-27T08:20:18.190Z,64.40
2019-06-27T08:22:50.084Z,63.40
2019-06-27T08:25:22.842Z,61.60
2019-06-27T08:27:55.168Z,62.00
2019-06-27T08:30:27.423Z,60.10
2019-06-27T08:32:59.058Z,58.70
2019-06-27T08:35:33.501Z,59.70
2019-06-27T08:38:04.280Z,60.60
2019-06-27T08:40:36.993Z,62.90
2019-06-27T08:43:09.243Z,60.20
2019-06-27T08:45:42.298Z,58.60
2019-06-27T08:48:14.457Z,59.30
2019-06-27T08:50:46.587Z,60.10
2019-06-27T08:53:18.812Z,61.40
2019-06-27T08:55:50.703Z,61.20
2019-06-27T08:58:23.363Z,61.40
2019-06-27T09:00:56.112Z,60.70
2019-06-27T09:03:29.187Z,60.10
2019-06-27T09:06:01.347Z,60.90
2019-06-27T09:08:34.315Z,62.90
2019-06-27T09:11:07.712Z,63.30
2019-06-27T09:13:40.773Z,63.70
2019-06-27T09:16:13.358Z,64.40
2019-06-27T09:18:45.173Z,64.00
2019-06-27T09:21:18.264Z,63.40
2019-06-27T09:23:50.619Z,62.10
2019-06-27T09:26:23.467Z,62.60
2019-06-27T09:28:55.723Z,62.80
2019-06-27T09:31:27.608Z,62.20
2019-06-27T09:34:00.311Z,61.40
2019-06-27T09:36:32.940Z,61.70
2019-06-27T09:39:06.210Z,62.00
2019-06-27T09:41:38.640Z,61.90
2019-06-27T09:44:10.927Z,60.10
2019-06-27T09:46:43.033Z,59.40
2019-06-27T09:49:15.079Z,60.00
2019-06-27T09:51:46.984Z,59.70
2019-06-27T09:54:19.134Z,60.60
2019-06-27T09:56:51.535Z,60.30
2019-06-27T09:59:23.603Z,60.70
2019-06-27T10:01:55.960Z,62.00
2019-06-27T10:04:27.981Z,61.20
2019-06-27T10:07:00.580Z,63.30
2019-06-27T10:09:33.649Z,59.60
2019-06-27T10:12:06.210Z,58.70
2019-06-27T10:14:39.034Z,59.30
2019-06-27T10:17:11.584Z,59.50
2019-06-27T10:19:45.489Z,59.10
2019-06-27T10:22:17.814Z,59.80
2019-06-27T10:24:50.215Z,56.70
2019-06-27T10:27:22.990Z,57.30
2019-06-27T10:29:55.091Z,57.60
2019-06-27T10:32:27.185Z,57.90
2019-06-27T10:34:58.915Z,58.00
2019-06-27T10:37:29.865Z,56.60
2019-06-27T10:40:01.775Z,56.80
2019-06-27T10:42:34.201Z,56.50
2019-06-27T10:45:06.755Z,55.90
2019-06-27T10:47:39.025Z,55.10
2019-06-27T10:50:10.856Z,54.10
2019-06-27T10:52:43.376Z,53.80
2019-06-27T10:55:15.412Z,53.70
2019-06-27T10:57:47.356Z,53.30
2019-06-27T11:00:21.353Z,52.20
2019-06-27T11:02:56.060Z,52.70
2019-06-27T11:05:28.806Z,52.60
2019-06-27T11:08:01.089Z,54.20
2019-06-27T11:10:34.078Z,53.70
2019-06-27T11:13:06.532Z,52.70
2019-06-27T11:15:39.383Z,52.90
2019-06-27T11:18:11.479Z,52.10
2019-06-27T11:20:43.512Z,51.80
2019-06-27T11:23:15.976Z,52.00
2019-06-27T11:25:48.771Z,51.40
2019-06-27T11:28:20.743Z,51.30
2019-06-27T11:30:53.361Z,50.80
2019-06-27T11:33:32.829Z,50.80
2019-06-27T11:35:58.982Z,50.50
2019-06-27T11:38:31.526Z,50.90
2019-06-27T11:41:03.905Z,51.30
2019-06-27T11:43:36.733Z,50.80
2019-06-27T11:46:09.066Z,50.90
2019-06-27T11:48:41.515Z,50.70
2019-06-27T11:51:14.314Z,50.90
2019-06-27T11:53:46.275Z,51.20
2019-06-27T11:56:18.741Z,51.30
2019-06-27T11:58:51.405Z,51.40
2019-06-27T12:01:23.445Z,51.60
2019-06-27T12:03:55.420Z,51.30
2019-06-27T12:06:27.634Z,51.20
2019-06-27T12:08:59.715Z,50.80
2019-06-27T12:11:32.493Z,50.30
2019-06-27T12:14:04.814Z,49.60
2019-06-27T12:16:37.090Z,50.00
2019-06-27T12:19:09.174Z,47.70
2019-06-27T12:21:41.189Z,47.10
2019-06-27T12:24:13.352Z,47.20
2019-06-27T12:26:46.661Z,49.50
2019-06-27T12:29:18.474Z,50.00
2019-06-27T12:31:51.701Z,52.20
2019-06-27T12:34:24.412Z,51.20
2019-06-27T12:36:58.041Z,50.50
2019-06-27T12:39:30.605Z,49.50
2019-06-27T12:42:02.676Z,48.50
2019-06-27T12:44:35.257Z,47.70
2019-06-27T12:47:07.500Z,47.10
2019-06-27T12:50:00.236Z,46.60
2019-06-27T12:52:13.205Z,46.40
2019-06-27T12:54:44.529Z,46.20
2019-06-27T12:57:16.996Z,46.10
2019-06-27T12:59:48.937Z,45.60
2019-06-27T13:02:20.831Z,45.70
2019-06-27T13:04:53.550Z,45.60
2019-06-27T13:07:25.630Z,45.80
2019-06-27T13:09:57.741Z,46.10
2019-06-27T13:12:30.233Z,46.20
2019-06-27T13:15:01.814Z,45.90
2019-06-27T13:17:33.335Z,45.70
2019-06-27T13:20:04.874Z,45.40
2019-06-27T13:22:37.726Z,46.30
2019-06-27T13:25:09.568Z,45.90
2019-06-27T13:27:42.366Z,46.30
2019-06-27T13:30:14.549Z,45.90
2019-06-27T13:32:47.125Z,45.90
2019-06-27T13:35:19.069Z,46.20
2019-06-27T13:37:50.260Z,45.70
2019-06-27T13:40:25.261Z,46.40
2019-06-27T13:42:58.305Z,46.30
2019-06-27T13:45:31.174Z,46.70
2019-06-27T13:48:03.315Z,46.50
2019-06-27T13:50:35.836Z,45.90
2019-06-27T13:53:08.162Z,45.50
2019-06-27T13:55:39.595Z,45.70
2019-06-27T13:58:11.515Z,45.90
2019-06-27T14:00:46.419Z,45.60
2019-06-27T14:03:19.104Z,45.40
2019-06-27T14:05:51.071Z,46.00
2019-06-27T14:08:26.215Z,45.70
2019-06-27T14:10:57.514Z,45.30
2019-06-27T14:13:30.386Z,44.70
2019-06-27T14:16:05.985Z,44.10
2019-06-27T14:18:37.558Z,43.70
2019-06-27T14:21:10.346Z,43.30
2019-06-27T14:23:43.156Z,42.90
2019-06-27T14:26:15.295Z,42.50
2019-06-27T14:28:48.459Z,43.20
2019-06-27T14:31:20.679Z,43.00
2019-06-27T14:33:52.457Z,42.20
2019-06-27T14:36:24.785Z,41.90
2019-06-27T14:38:57.089Z,42.30
2019-06-27T14:41:29.336Z,42.00
2019-06-27T14:44:01.525Z,41.90
2019-06-27T14:46:37.162Z,42.20
2019-06-27T14:49:06.906Z,42.50
2019-06-27T14:51:39.901Z,42.30
2019-06-27T14:54:12.576Z,42.80
2019-06-27T14:56:44.712Z,42.70
2019-06-27T14:59:16.962Z,41.80
2019-06-27T15:01:49.016Z,42.40
2019-06-27T15:04:23.292Z,42.50
2019-06-27T15:06:55.466Z,43.00
2019-06-27T15:09:27.551Z,43.00
2019-06-27T15:11:59.813Z,44.20
2019-06-27T15:14:31.155Z,45.90
2019-06-27T15:17:03.039Z,45.60
2019-06-27T15:19:35.527Z,45.70
2019-06-27T15:22:07.855Z,45.60
2019-06-27T15:24:40.106Z,44.00
2019-06-27T15:27:11.759Z,43.90
2019-06-27T15:29:44.300Z,43.50
2019-06-27T15:32:16.470Z,42.90
2019-06-27T15:34:50.389Z,42.80
2019-06-27T15:37:23.589Z,44.10
2019-06-27T15:39:56.402Z,42.40
2019-06-27T15:42:28.991Z,43.00
2019-06-27T15:45:01.806Z,42.90
2019-06-27T15:47:34.591Z,42.40
2019-06-27T15:50:06.936Z,43.00
2019-06-27T15:52:39.595Z,44.60
2019-06-27T15:55:12.575Z,45.20
2019-06-27T15:57:45.327Z,45.90
2019-06-27T16:00:17.786Z,46.10
2019-06-27T16:02:49.835Z,46.80
2019-06-27T16:05:22.839Z,47.50
2019-06-27T16:07:56.066Z,48.00
2019-06-27T16:10:29.575Z,48.40
2019-06-27T16:13:02.978Z,48.50
2019-06-27T16:15:34.870Z,47.40
2019-06-27T16:18:07.645Z,47.60
2019-06-27T16:20:40.694Z,47.00
2019-06-27T16:23:12.746Z,46.20
2019-06-27T16:25:46.216Z,48.60
2019-06-27T16:28:18.465Z,48.60
2019-06-27T16:30:52.231Z,48.80
2019-06-27T16:33:25.633Z,50.00
2019-06-27T16:35:57.570Z,50.20
2019-06-27T16:38:30.636Z,50.10
2019-06-27T16:41:02.862Z,50.70
2019-06-27T16:43:35.045Z,50.80
2019-06-27T16:46:07.931Z,50.00
2019-06-27T16:48:41.065Z,51.00
2019-06-27T16:51:13.865Z,51.40
2019-06-27T16:53:46.056Z,51.90
2019-06-27T16:56:18.825Z,52.30
2019-06-27T16:58:51.151Z,52.40
2019-06-27T17:01:23.511Z,52.00
2019-06-27T17:03:56.551Z,52.10
2019-06-27T17:06:41.554Z,52.80
2019-06-27T17:09:03.271Z,52.40
2019-06-27T17:11:35.155Z,51.70
2019-06-27T17:14:07.890Z,51.50
2019-06-27T17:16:40.232Z,51.60
2019-06-27T17:19:13.455Z,52.70
2019-06-27T17:21:46.166Z,52.00
2019-06-27T17:24:19.760Z,52.50
2019-06-27T17:26:52.554Z,51.90
2019-06-27T17:29:25.035Z,53.00
2019-06-27T17:31:57.465Z,52.70
2019-06-27T17:34:30.745Z,52.40
2019-06-27T17:37:03.145Z,52.60
2019-06-27T17:39:35.930Z,53.00
2019-06-27T17:42:08.302Z,53.20
2019-06-27T17:44:41.658Z,54.20
2019-06-27T17:47:13.721Z,54.50
2019-06-27T17:49:49.103Z,54.70
2019-06-27T17:52:20.220Z,54.90
2019-06-27T17:54:52.711Z,55.30
2019-06-27T17:57:24.701Z,55.40
2019-06-27T17:59:57.124Z,55.80
2019-06-27T18:02:30.450Z,55.60
2019-06-27T18:05:03.510Z,54.40
2019-06-27T18:07:35.931Z,54.80
2019-06-27T18:10:08.870Z,55.80
2019-06-27T18:12:42.657Z,56.10
2019-06-27T18:17:47.420Z,56.70
2019-06-27T18:20:20.401Z,57.20
2019-06-27T18:22:53.196Z,58.40
2019-06-27T18:25:26.495Z,58.40
2019-06-27T18:27:58.370Z,58.20
2019-06-27T18:30:30.668Z,57.60
2019-06-27T18:33:03.907Z,58.40
2019-06-27T18:35:35.846Z,58.70
2019-06-27T18:38:08.240Z,59.30
2019-06-27T18:40:41.191Z,58.50
2019-06-27T18:43:12.742Z,57.80
2019-06-27T18:45:46.059Z,58.40
2019-06-27T18:48:19.655Z,58.30
2019-06-27T18:50:51.171Z,57.20
2019-06-27T18:53:24.422Z,58.50
2019-06-27T18:55:57.312Z,57.40
2019-06-27T18:58:30.191Z,58.50
2019-06-27T19:01:02.066Z,58.70
2019-06-27T19:03:34.595Z,58.70
2019-06-27T19:06:06.313Z,58.80
2019-06-27T19:08:39.227Z,58.90
2019-06-27T19:11:11.796Z,58.90
2019-06-27T19:13:44.186Z,59.40
2019-06-27T19:16:16.556Z,59.20
2019-06-27T19:18:55.322Z,59.00
2019-06-27T19:21:36.189Z,58.70
2019-06-27T19:24:25.445Z,58.40
2019-06-27T19:26:58.280Z,59.40
2019-06-27T19:29:31.640Z,59.60
2019-06-27T19:32:04.446Z,59.70
2019-06-27T19:34:36.761Z,60.30
2019-06-27T19:37:09.085Z,60.60
2019-06-27T19:39:41.406Z,60.80
2019-06-27T19:42:13.350Z,60.70
2019-06-27T19:44:45.806Z,60.70
2019-06-27T19:47:18.300Z,60.80
2019-06-27T19:49:49.871Z,61.20
2019-06-27T19:52:23.260Z,61.10
2019-06-27T19:54:55.533Z,61.30
2019-06-27T19:57:27.966Z,61.30
2019-06-27T20:00:00.507Z,61.60
2019-06-27T20:02:32.745Z,61.60
2019-06-27T20:05:05.271Z,61.40
2019-06-27T20:07:38.478Z,61.50
2019-06-27T20:10:11.777Z,61.40
2019-06-27T20:12:44.641Z,61.50
2019-06-27T20:15:17.455Z,61.60
2019-06-27T20:17:50.002Z,62.50
2019-06-27T20:20:22.377Z,62.00
2019-06-27T20:22:54.625Z,61.10
2019-06-27T20:25:27.165Z,61.20
2019-06-27T20:28:00.140Z,61.30
2019-06-27T20:30:33.183Z,61.90
2019-06-27T20:33:05.382Z,61.30
2019-06-27T20:35:36.901Z,61.30
2019-06-27T20:38:09.202Z,61.30
2019-06-27T20:40:41.905Z,61.20
2019-06-27T20:43:15.082Z,61.30
2019-06-27T20:45:47.878Z,61.10
2019-06-27T20:48:21.003Z,61.30
2019-06-27T20:50:53.884Z,61.60
2019-06-27T20:53:26.626Z,61.30
2019-06-27T20:55:59.190Z,61.50
2019-06-27T20:58:32.231Z,62.40
2019-06-27T21:01:04.311Z,62.80
2019-06-27T21:03:37.514Z,63.30
2019-06-27T21:06:11.961Z,64.10
2019-06-27T21:08:51.212Z,63.00
2019-06-27T21:11:18.826Z,63.40
2019-06-27T21:13:52.326Z,63.40
2019-06-27T21:16:25.476Z,63.90
2019-06-27T21:18:58.086Z,63.80
2019-06-27T21:21:30.381Z,63.60
2019-06-27T21:24:03.519Z,63.90
2019-06-27T21:26:37.160Z,64.30
2019-06-27T21:29:10.141Z,63.80
2019-06-27T21:31:43.243Z,64.00
2019-06-27T21:34:15.951Z,63.60
2019-06-27T21:36:48.051Z,63.80
2019-06-27T21:39:20.956Z,64.50
2019-06-27T21:41:53.556Z,64.50
2019-06-27T21:44:26.156Z,65.00
2019-06-27T21:46:58.902Z,65.10
2019-06-27T21:49:31.326Z,64.70
2019-06-27T21:52:03.753Z,64.00
2019-06-27T21:54:36.196Z,64.40
2019-06-27T21:57:09.760Z,63.70
2019-06-27T21:59:42.084Z,63.80
2019-06-27T22:02:14.786Z,63.50
2019-06-27T22:04:47.252Z,64.30
2019-06-27T22:07:20.073Z,64.50
2019-06-27T22:09:52.772Z,63.20
2019-06-27T22:12:25.519Z,63.40
2019-06-27T22:14:58.103Z,63.50
2019-06-27T22:17:29.631Z,63.40
2019-06-27T22:20:14.508Z,62.70
2019-06-27T22:22:36.294Z,62.90
2019-06-27T22:25:09.865Z,62.70
2019-06-27T22:27:43.273Z,63.40
2019-06-27T22:30:17.126Z,63.20
2019-06-27T22:32:49.942Z,64.20
2019-06-27T22:35:22.814Z,63.50
2019-06-27T22:38:12.281Z,64.50
2019-06-27T22:41:01.672Z,64.70
2019-06-27T22:43:51.719Z,64.30
2019-06-27T22:46:40.712Z,64.60
2019-06-27T22:49:12.186Z,64.60
2019-06-27T22:51:58.385Z,64.10
2019-06-27T22:54:31.150Z,64.70
2019-06-27T22:57:04.093Z,64.60
2019-06-27T22:59:36.610Z,64.50
2019-06-27T23:02:08.876Z,64.80
2019-06-27T23:04:41.772Z,64.80
2019-06-27T23:07:14.817Z,65.00
2019-06-27T23:09:56.396Z,65.00
2019-06-27T23:12:20.641Z,65.40
2019-06-27T23:14:53.221Z,65.40
2019-06-27T23:17:25.965Z,65.20
2019-06-27T23:19:58.812Z,64.70
2019-06-27T23:22:30.952Z,65.70
2019-06-27T23:25:03.460Z,65.80
2019-06-27T23:27:36.801Z,66.00
2019-06-27T23:30:08.450Z,66.30
2019-06-27T23:32:41.009Z,67.10
2019-06-27T23:35:12.690Z,67.10
2019-06-27T23:37:45.104Z,67.30
2019-06-27T23:40:17.366Z,67.70
2019-06-27T23:42:49.319Z,68.00
2019-06-27T23:45:21.751Z,68.30
2019-06-27T23:47:54.565Z,68.50
2019-06-27T23:50:27.665Z,68.80
2019-06-27T23:52:59.321Z,69.00
2019-06-27T23:55:32.090Z,69.30
2019-06-27T23:58:04.895Z,69.50
